Terminal Aerodrome Forecast
Issued by NWS Knoxville/Tri Cities, TN

Home | Current Version | Previous Version | Text Only | Print | Product List | Glossary On
Versions: 1 2 3 4 5 6 7 8 9 10 11 12 13 14
000
FTUS44 KMRX 190520
TAFTYS
TAF
KTYS 190520Z 1906/2006 00000KT P6SM SCT200
      TEMPO 1910/1913 4SM BR SCT004
     FM191500 05004KT P6SM FEW250
     FM200000 00000KT P6SM SKC=

USA.gov is the U.S. government's official web portal to all federal, state and local government web resources and services.